createdAt,value
2022-10-03T00:00:12.816Z,11.80
2022-10-03T00:03:35.891Z,11.78
2022-10-03T00:06:16.083Z,11.80
2022-10-03T00:09:01.622Z,11.80
2022-10-03T00:11:46.977Z,11.86
2022-10-03T00:14:26.312Z,11.90
2022-10-03T00:17:06.211Z,11.86
2022-10-03T00:19:47.431Z,11.86
2022-10-03T00:22:32.830Z,11.80
2022-10-03T00:25:21.192Z,11.90
2022-10-03T00:28:11.049Z,11.92
2022-10-03T00:30:58.980Z,12.00
2022-10-03T00:33:40.799Z,12.00
2022-10-03T00:36:22.787Z,12.16
2022-10-03T00:39:10.825Z,12.20
2022-10-03T00:41:56.158Z,12.20
2022-10-03T00:45:15.674Z,12.06
2022-10-03T00:48:29.893Z,11.90
2022-10-03T00:51:14.494Z,11.80
2022-10-03T00:54:05.779Z,11.80
2022-10-03T00:56:55.738Z,11.70
2022-10-03T00:59:41.924Z,11.70
2022-10-03T01:02:37.906Z,11.68
2022-10-03T01:05:17.296Z,11.64
2022-10-03T01:08:24.730Z,11.68
2022-10-03T01:11:05.464Z,11.60
2022-10-03T01:13:48.120Z,11.70
2022-10-03T01:16:31.499Z,11.70
2022-10-03T01:19:18.326Z,11.70
2022-10-03T01:22:04.060Z,11.70
2022-10-03T01:24:55.166Z,11.70
2022-10-03T01:27:58.883Z,11.82
2022-10-03T01:30:38.474Z,11.90
2022-10-03T01:33:16.399Z,11.90
2022-10-03T01:35:57.589Z,11.92
2022-10-03T01:38:35.058Z,12.00
2022-10-03T01:41:12.691Z,12.00
2022-10-03T01:43:54.994Z,12.04
2022-10-03T01:46:38.484Z,12.10
2022-10-03T01:49:19.184Z,12.20
2022-10-03T01:52:01.795Z,12.30
2022-10-03T01:54:44.066Z,12.40
2022-10-03T01:57:27.019Z,12.40
2022-10-03T02:00:08.109Z,12.40
2022-10-03T02:02:49.057Z,12.30
2022-10-03T02:05:27.815Z,12.20
2022-10-03T02:08:06.123Z,12.20
2022-10-03T02:10:46.966Z,12.10
2022-10-03T02:13:23.626Z,12.10
2022-10-03T02:16:30.176Z,12.02
2022-10-03T02:19:08.116Z,12.00
2022-10-03T02:21:50.275Z,12.10
2022-10-03T02:24:41.053Z,12.06
2022-10-03T02:27:52.720Z,12.02
2022-10-03T02:30:33.243Z,12.06
2022-10-03T02:33:49.514Z,12.10
2022-10-03T02:36:45.019Z,12.10
2022-10-03T02:39:53.878Z,12.10
2022-10-03T02:42:59.128Z,12.10
2022-10-03T02:45:55.569Z,12.10
2022-10-03T02:48:49.620Z,12.10
2022-10-03T02:51:50.274Z,12.20
2022-10-03T02:54:54.353Z,12.22
2022-10-03T02:57:53.295Z,12.30
2022-10-03T03:00:32.960Z,12.30
2022-10-03T03:03:39.352Z,12.30
2022-10-03T03:06:32.577Z,12.30
2022-10-03T03:09:38.579Z,12.30
2022-10-03T03:12:41.024Z,12.40
2022-10-03T03:16:03.073Z,12.50
2022-10-03T03:18:44.072Z,12.50
2022-10-03T03:21:27.989Z,12.60
2022-10-03T03:24:16.944Z,12.60
2022-10-03T03:27:13.605Z,12.50
2022-10-03T03:29:55.520Z,12.40
2022-10-03T03:32:38.911Z,12.40
2022-10-03T03:35:23.820Z,12.40
2022-10-03T03:38:04.753Z,12.50
2022-10-03T03:40:46.705Z,12.42
2022-10-03T03:43:47.793Z,12.40
2022-10-03T03:46:31.901Z,12.40
2022-10-03T03:49:29.660Z,12.40
2022-10-03T03:52:31.127Z,12.40
2022-10-03T03:55:21.192Z,12.34
2022-10-03T03:58:07.004Z,12.30
2022-10-03T04:00:56.429Z,12.30
2022-10-03T04:03:48.220Z,12.30
2022-10-03T04:06:36.583Z,12.30
2022-10-03T04:09:27.806Z,12.20
2022-10-03T04:12:09.162Z,12.20
2022-10-03T04:14:56.309Z,12.20
2022-10-03T04:18:11.868Z,12.20
2022-10-03T04:21:01.243Z,12.20
2022-10-03T04:23:58.243Z,12.20
2022-10-03T04:26:43.129Z,12.20
2022-10-03T04:29:47.323Z,12.20
2022-10-03T04:32:35.504Z,12.20
2022-10-03T04:35:31.245Z,12.20
2022-10-03T04:38:14.283Z,12.30
2022-10-03T04:40:55.937Z,12.30
2022-10-03T04:43:36.762Z,12.22
2022-10-03T04:46:29.127Z,12.22
2022-10-03T04:49:12.260Z,12.30
2022-10-03T04:51:55.664Z,12.30
2022-10-03T04:54:35.705Z,12.30
2022-10-03T04:57:17.035Z,12.30
2022-10-03T05:00:00.015Z,12.30
2022-10-03T05:02:47.103Z,12.30
2022-10-03T05:05:44.602Z,12.30
2022-10-03T05:08:33.173Z,12.36
2022-10-03T05:11:13.865Z,12.40
2022-10-03T05:14:00.274Z,12.40
2022-10-03T05:16:46.500Z,12.34
2022-10-03T05:19:51.660Z,12.30
2022-10-03T05:22:40.401Z,12.20
2022-10-03T05:25:35.360Z,12.10
2022-10-03T05:28:21.684Z,12.06
2022-10-03T05:30:59.535Z,12.00
2022-10-03T05:33:44.115Z,11.90
2022-10-03T05:36:30.210Z,11.90
2022-10-03T05:39:23.850Z,11.90
2022-10-03T05:42:21.590Z,11.82
2022-10-03T05:45:04.494Z,11.90
2022-10-03T05:48:00.559Z,12.00
2022-10-03T05:51:12.110Z,12.18
2022-10-03T05:54:19.661Z,12.20
2022-10-03T05:57:13.145Z,12.20
2022-10-03T06:00:12.101Z,12.20
2022-10-03T06:03:22.180Z,12.20
2022-10-03T06:06:15.041Z,12.30
2022-10-03T06:08:56.453Z,12.40
2022-10-03T06:11:46.535Z,12.52
2022-10-03T06:14:33.548Z,12.60
2022-10-03T06:17:29.601Z,12.60
2022-10-03T06:20:19.245Z,12.60
2022-10-03T06:23:24.171Z,12.50
2022-10-03T06:26:23.260Z,12.40
2022-10-03T06:29:34.118Z,12.30
2022-10-03T06:32:37.486Z,12.30
2022-10-03T06:35:45.339Z,12.30
2022-10-03T06:38:45.418Z,12.30
2022-10-03T06:41:40.258Z,12.20
2022-10-03T06:44:37.049Z,12.20
2022-10-03T06:47:31.590Z,12.20
2022-10-03T06:50:35.846Z,12.10
2022-10-03T06:53:39.808Z,12.10
2022-10-03T06:56:53.481Z,12.14
2022-10-03T06:59:54.259Z,12.20
2022-10-03T07:02:58.024Z,12.20
2022-10-03T07:06:10.209Z,12.20
2022-10-03T07:09:30.015Z,12.30
2022-10-03T07:12:37.432Z,12.40
2022-10-03T07:16:08.694Z,12.50
2022-10-03T07:19:02.355Z,12.50
2022-10-03T07:22:19.392Z,12.60
2022-10-03T07:25:23.323Z,12.60
2022-10-03T07:28:08.487Z,12.52
2022-10-03T07:30:56.492Z,12.50
2022-10-03T07:33:48.254Z,12.50
2022-10-03T07:36:50.159Z,12.52
2022-10-03T07:39:55.369Z,12.60
2022-10-03T07:43:00.367Z,12.62
2022-10-03T07:45:38.224Z,12.66
2022-10-03T07:48:49.522Z,12.70
2022-10-03T07:51:27.799Z,12.70
2022-10-03T07:54:25.736Z,12.80
2022-10-03T07:57:39.661Z,12.84
2022-10-03T08:00:26.393Z,13.10
2022-10-03T08:03:38.498Z,13.30
2022-10-03T08:06:19.378Z,13.30
2022-10-03T08:09:12.810Z,13.40
2022-10-03T08:12:15.075Z,13.50
2022-10-03T08:14:58.294Z,13.60
2022-10-03T08:18:00.815Z,13.70
2022-10-03T08:24:19.283Z,13.88
2022-10-03T08:27:17.926Z,14.00
2022-10-03T08:30:21.687Z,14.10
2022-10-03T08:33:27.702Z,14.20
2022-10-03T08:36:22.157Z,14.20
2022-10-03T08:39:04.670Z,14.10
2022-10-03T08:42:09.843Z,14.00
2022-10-03T08:45:39.376Z,13.90
2022-10-03T08:48:43.292Z,13.70
2022-10-03T08:51:44.250Z,13.70
2022-10-03T08:54:47.235Z,13.80
2022-10-03T08:57:47.018Z,13.90
2022-10-03T09:00:23.746Z,13.90
2022-10-03T09:03:35.202Z,14.00
2022-10-03T09:06:28.963Z,14.34
2022-10-03T09:09:33.177Z,14.60
2022-10-03T09:12:32.165Z,14.70
2022-10-03T09:15:17.021Z,14.82
2022-10-03T09:18:23.014Z,14.90
2022-10-03T09:21:37.181Z,15.00
2022-10-03T09:24:58.053Z,15.20
2022-10-03T09:27:56.849Z,15.40
2022-10-03T09:34:10.811Z,15.40
2022-10-03T09:37:31.461Z,15.30
2022-10-03T09:40:53.251Z,15.10
2022-10-03T09:44:04.168Z,15.20
2022-10-03T09:47:19.504Z,15.12
2022-10-03T09:50:22.876Z,15.10
2022-10-03T09:53:21.401Z,15.00
2022-10-03T09:56:19.978Z,14.94
2022-10-03T09:59:14.559Z,15.10
2022-10-03T10:01:55.193Z,15.30
2022-10-03T10:05:01.243Z,15.36
2022-10-03T10:08:11.290Z,15.40
2022-10-03T10:11:15.316Z,15.50
2022-10-03T10:14:12.413Z,15.60
2022-10-03T10:17:11.686Z,15.64
2022-10-03T10:19:59.575Z,15.70
2022-10-03T10:23:11.155Z,15.70
2022-10-03T10:26:10.701Z,15.60
2022-10-03T10:29:17.650Z,15.36
2022-10-03T10:32:29.634Z,15.20
2022-10-03T10:35:30.007Z,15.10
2022-10-03T10:38:28.577Z,15.10
2022-10-03T10:41:57.053Z,15.10
2022-10-03T10:45:03.479Z,15.08
2022-10-03T10:48:23.781Z,15.32
2022-10-03T10:51:31.182Z,15.90
2022-10-03T10:54:33.520Z,16.20
2022-10-03T10:57:22.652Z,16.40
2022-10-03T11:00:17.973Z,16.60
2022-10-03T11:03:24.475Z,16.50
2022-10-03T11:06:32.030Z,16.22
2022-10-03T11:09:47.623Z,16.10
2022-10-03T11:12:53.006Z,16.00
2022-10-03T11:16:11.706Z,16.30
2022-10-03T11:19:32.585Z,16.70
2022-10-03T11:22:52.550Z,17.00
2022-10-03T11:26:01.945Z,17.00
2022-10-03T11:29:15.614Z,16.80
2022-10-03T11:32:19.088Z,16.70
2022-10-03T11:35:26.982Z,16.60
2022-10-03T11:38:08.159Z,16.72
2022-10-03T12:13:14.540Z,16.50
2022-10-03T12:15:47.380Z,16.50
2022-10-03T12:18:21.854Z,16.56
2022-10-03T12:21:10.532Z,16.68
2022-10-03T12:24:01.660Z,17.16
2022-10-03T12:26:43.659Z,17.00
2022-10-03T12:29:14.058Z,17.48
2022-10-03T12:31:51.491Z,20.06
2022-10-03T12:34:35.063Z,22.96
2022-10-03T12:37:22.802Z,22.46
2022-10-03T12:40:03.658Z,23.72
2022-10-03T12:42:36.818Z,26.16
2022-10-03T12:45:16.179Z,28.28
2022-10-03T12:48:00.269Z,29.90
2022-10-03T12:50:39.624Z,30.72
2022-10-03T12:53:27.364Z,31.46
2022-10-03T12:56:11.463Z,30.52
2022-10-03T12:58:49.289Z,28.32
2022-10-03T13:01:28.346Z,27.06
2022-10-03T13:04:05.347Z,25.50
2022-10-03T13:07:02.872Z,23.98
2022-10-03T13:09:55.405Z,22.56
2022-10-03T13:12:34.634Z,21.54
2022-10-03T13:15:31.526Z,20.90
2022-10-03T13:18:04.376Z,22.00
2022-10-03T13:20:39.461Z,21.50
2022-10-03T13:23:21.049Z,21.92
2022-10-03T13:26:04.206Z,21.56
2022-10-03T13:28:47.785Z,20.70
2022-10-03T13:31:24.014Z,20.00
2022-10-03T13:33:56.333Z,19.38
2022-10-03T13:36:30.774Z,18.92
2022-10-03T13:39:13.129Z,18.42
2022-10-03T13:41:59.161Z,18.00
2022-10-03T13:44:36.990Z,17.90
2022-10-03T13:47:20.069Z,17.98
2022-10-03T13:49:54.676Z,18.66
2022-10-03T13:52:33.485Z,19.58
2022-10-03T13:55:18.230Z,18.94
2022-10-03T13:57:56.354Z,18.50
2022-10-03T14:00:28.027Z,18.20
2022-10-03T14:03:10.824Z,18.52
2022-10-03T14:05:52.936Z,19.30
2022-10-03T14:08:39.928Z,19.96
2022-10-03T14:11:25.471Z,19.62
2022-10-03T14:14:13.815Z,19.14
2022-10-03T14:16:47.999Z,18.74
2022-10-03T14:19:30.128Z,18.40
2022-10-03T14:22:29.316Z,17.98
2022-10-03T14:25:12.358Z,17.50
2022-10-03T14:27:51.783Z,17.10
2022-10-03T14:30:23.525Z,16.80
2022-10-03T14:33:04.363Z,16.50
2022-10-03T14:35:40.980Z,16.20
2022-10-03T14:39:02.165Z,16.00
2022-10-03T14:41:43.837Z,15.90
2022-10-03T14:44:17.104Z,15.90
2022-10-03T14:46:50.647Z,15.82
2022-10-03T14:49:48.507Z,15.80
2022-10-03T14:52:47.915Z,15.80
2022-10-03T14:55:20.252Z,15.90
2022-10-03T14:58:09.948Z,15.90
2022-10-03T15:00:44.703Z,15.90
2022-10-03T15:03:32.767Z,15.80
2022-10-03T15:06:21.949Z,15.70
2022-10-03T15:08:54.007Z,15.70
2022-10-03T15:11:31.106Z,15.60
2022-10-03T15:14:05.840Z,15.40
2022-10-03T15:16:39.855Z,15.40
2022-10-03T15:19:17.338Z,15.48
2022-10-03T15:21:50.374Z,15.50
2022-10-03T15:24:25.324Z,15.50
2022-10-03T15:27:01.870Z,15.60
2022-10-03T15:29:31.826Z,15.70
2022-10-03T15:32:00.680Z,16.02
2022-10-03T15:34:38.274Z,16.30
2022-10-03T15:37:15.928Z,16.40
2022-10-03T15:39:45.478Z,16.40
2022-10-03T15:42:25.295Z,16.40
2022-10-03T15:44:58.721Z,16.50
2022-10-03T15:47:28.945Z,16.40
2022-10-03T15:50:02.865Z,16.36
2022-10-03T15:52:40.281Z,16.58
2022-10-03T15:55:19.211Z,16.50
2022-10-03T15:57:50.535Z,16.60
2022-10-03T16:00:25.941Z,16.60
2022-10-03T16:03:05.788Z,16.60
2022-10-03T16:05:36.465Z,16.50
2022-10-03T16:08:10.347Z,16.30
2022-10-03T16:10:45.586Z,16.10
2022-10-03T16:13:28.824Z,15.94
2022-10-03T16:16:12.605Z,15.80
2022-10-03T16:19:12.775Z,15.70
2022-10-03T16:21:49.047Z,15.50
2022-10-03T16:24:26.913Z,15.40
2022-10-03T16:26:58.547Z,15.20
2022-10-03T16:29:30.273Z,15.10
2022-10-03T16:32:04.896Z,15.00
2022-10-03T16:34:35.948Z,14.80
2022-10-03T16:37:15.050Z,14.68
2022-10-03T16:39:51.088Z,14.50
2022-10-03T16:42:25.489Z,14.40
2022-10-03T16:44:57.602Z,14.30
2022-10-03T16:47:33.956Z,14.26
2022-10-03T16:50:22.004Z,14.20
2022-10-03T16:52:58.089Z,14.12
2022-10-03T16:55:31.806Z,14.10
2022-10-03T16:58:06.438Z,14.10
2022-10-03T17:00:44.795Z,14.10
2022-10-03T17:03:19.725Z,14.10
2022-10-03T17:05:50.357Z,14.10
2022-10-03T17:08:41.330Z,14.00
2022-10-03T17:11:20.480Z,13.86
2022-10-03T17:13:53.421Z,13.80
2022-10-03T17:16:33.487Z,13.70
2022-10-03T17:19:14.327Z,13.70
2022-10-03T17:21:49.280Z,13.56
2022-10-03T17:24:28.374Z,13.50
2022-10-03T17:27:00.815Z,13.50
2022-10-03T17:29:33.634Z,13.50
2022-10-03T17:32:09.948Z,13.60
2022-10-03T17:34:45.953Z,13.70
2022-10-03T17:37:45.851Z,13.70
2022-10-03T17:40:23.469Z,13.60
2022-10-03T17:42:56.314Z,13.58
2022-10-03T17:45:33.158Z,13.42
2022-10-03T17:48:09.535Z,13.30
2022-10-03T17:50:49.160Z,13.30
2022-10-03T17:53:26.159Z,13.30
2022-10-03T17:55:58.390Z,13.30
2022-10-03T17:58:55.755Z,13.20
2022-10-03T18:01:47.480Z,13.30
2022-10-03T18:04:20.521Z,13.30
2022-10-03T18:07:23.836Z,13.30
2022-10-03T18:09:55.996Z,13.40
2022-10-03T18:12:34.408Z,13.30
2022-10-03T18:15:23.201Z,13.20
2022-10-03T18:18:07.879Z,13.10
2022-10-03T18:20:48.831Z,13.10
2022-10-03T18:23:53.251Z,13.10
2022-10-03T18:26:27.948Z,13.10
2022-10-03T18:33:01.515Z,13.20
2022-10-03T18:35:43.606Z,13.20
2022-10-03T18:38:28.462Z,13.28
2022-10-03T18:41:10.452Z,13.30
2022-10-03T18:44:10.468Z,13.32
2022-10-03T18:47:01.035Z,13.40
2022-10-03T18:49:57.337Z,13.50
2022-10-03T18:52:53.961Z,13.54
2022-10-03T18:55:55.018Z,13.68
2022-10-03T18:58:30.849Z,13.70
2022-10-03T19:01:07.500Z,13.60
2022-10-03T19:03:41.880Z,13.60
2022-10-03T19:06:19.626Z,13.66
2022-10-03T19:08:53.428Z,13.70
2022-10-03T19:11:28.412Z,13.64
2022-10-03T19:14:00.488Z,13.60
2022-10-03T19:16:46.120Z,13.50
2022-10-03T19:19:24.866Z,13.50
2022-10-03T19:21:53.905Z,13.50
2022-10-03T19:24:57.950Z,13.50
2022-10-03T19:27:40.626Z,13.50
2022-10-03T19:30:12.091Z,13.50
2022-10-03T19:32:54.351Z,13.50
2022-10-03T19:35:24.689Z,13.50
2022-10-03T19:37:55.973Z,13.42
2022-10-03T19:40:53.474Z,13.36
2022-10-03T19:43:39.707Z,13.30
2022-10-03T19:46:39.386Z,13.40
2022-10-03T19:49:33.906Z,13.44
2022-10-03T19:52:22.758Z,13.50
2022-10-03T19:55:09.690Z,13.50
2022-10-03T19:57:49.873Z,13.60
2022-10-03T20:00:29.811Z,13.60
2022-10-03T20:03:15.552Z,13.70
2022-10-03T20:05:59.315Z,13.66
2022-10-03T20:08:45.814Z,13.64
2022-10-03T20:11:34.557Z,13.70
2022-10-03T20:14:13.664Z,13.70
2022-10-03T20:16:47.027Z,13.60
2022-10-03T20:19:20.199Z,13.60
2022-10-03T20:21:54.080Z,13.50
2022-10-03T20:24:31.255Z,13.50
2022-10-03T20:27:12.865Z,13.50
2022-10-03T20:29:51.122Z,13.50
2022-10-03T20:32:20.658Z,13.40
2022-10-03T20:34:54.812Z,13.30
2022-10-03T20:37:37.979Z,13.30
2022-10-03T20:40:23.538Z,13.30
2022-10-03T20:42:58.116Z,13.30
2022-10-03T20:45:29.747Z,13.30
2022-10-03T20:48:02.673Z,13.30
2022-10-03T20:50:34.803Z,13.30
2022-10-03T20:53:10.701Z,13.20
2022-10-03T20:55:52.172Z,13.20
2022-10-03T20:58:40.148Z,13.20
2022-10-03T21:01:15.241Z,13.20
2022-10-03T21:04:02.469Z,13.18
2022-10-03T21:09:48.211Z,13.10
2022-10-03T21:12:22.750Z,13.10
2022-10-03T21:14:57.708Z,13.10
2022-10-03T21:17:28.443Z,13.00
2022-10-03T21:20:04.424Z,13.00
2022-10-03T21:22:36.068Z,13.00
2022-10-03T21:25:15.627Z,13.00
2022-10-03T21:27:50.527Z,12.94
2022-10-03T21:30:45.931Z,12.90
2022-10-03T21:33:21.418Z,12.92
2022-10-03T21:35:53.986Z,13.00
2022-10-03T21:38:27.434Z,13.00
2022-10-03T21:41:19.667Z,12.90
2022-10-03T21:43:53.762Z,12.86
2022-10-03T21:46:33.202Z,13.06
2022-10-03T21:49:17.455Z,13.20
2022-10-03T21:52:05.745Z,13.30
2022-10-03T21:54:43.974Z,13.40
2022-10-03T21:57:20.707Z,13.44
2022-10-03T22:00:08.716Z,13.50
2022-10-03T22:02:50.055Z,13.50
2022-10-03T22:05:28.804Z,13.52
2022-10-03T22:07:57.354Z,13.60
2022-10-03T22:10:29.779Z,13.60
2022-10-03T22:13:04.854Z,13.62
2022-10-03T22:15:41.936Z,13.70
2022-10-03T22:18:12.844Z,13.70
2022-10-03T22:20:52.545Z,13.70
2022-10-03T22:23:32.938Z,13.70
2022-10-03T22:26:14.511Z,13.70
2022-10-03T22:28:52.474Z,13.70
2022-10-03T22:31:29.146Z,13.78
2022-10-03T22:34:15.863Z,13.70
2022-10-03T22:36:44.521Z,13.70
2022-10-03T22:39:15.793Z,13.70
2022-10-03T22:41:48.609Z,13.70
2022-10-03T22:44:19.169Z,13.70
2022-10-03T22:46:51.273Z,13.70
2022-10-03T22:49:22.491Z,13.70
2022-10-03T22:51:54.277Z,13.70
2022-10-03T22:54:30.096Z,13.70
2022-10-03T22:57:04.105Z,13.70
2022-10-03T22:59:38.158Z,13.70
2022-10-03T23:02:12.066Z,13.70
2022-10-03T23:04:45.995Z,13.70
2022-10-03T23:07:45.316Z,13.70
2022-10-03T23:10:26.561Z,13.70
2022-10-03T23:13:00.372Z,13.70
2022-10-03T23:15:32.065Z,13.70
2022-10-03T23:18:19.500Z,13.70
2022-10-03T23:21:05.979Z,13.70
2022-10-03T23:23:46.406Z,13.70
2022-10-03T23:26:53.162Z,13.64
2022-10-03T23:29:22.101Z,13.70
2022-10-03T23:31:53.399Z,13.70
2022-10-03T23:34:43.592Z,13.70
2022-10-03T23:37:39.846Z,13.66
2022-10-03T23:40:42.709Z,13.60
2022-10-03T23:43:27.373Z,13.60
2022-10-03T23:46:00.372Z,13.60
2022-10-03T23:48:31.922Z,13.60
2022-10-03T23:51:03.632Z,13.60
2022-10-03T23:53:38.137Z,13.60
2022-10-03T23:56:27.136Z,13.60
2022-10-03T23:58:57.576Z,13.60
